createdAt,value
2019-02-16T00:01:09.085Z,101256.44
2019-02-16T00:03:36.246Z,101254.94
2019-02-16T00:06:03.136Z,101257.23
2019-02-16T00:08:30.789Z,101262.27
2019-02-16T00:10:58.830Z,101260.84
2019-02-16T00:13:25.853Z,101255.22
2019-02-16T00:15:52.810Z,101252.48
2019-02-16T00:18:19.696Z,101252.98
2019-02-16T00:20:46.600Z,101255.20
2019-02-16T00:23:13.866Z,101250.45
2019-02-16T00:25:41.141Z,101250.75
2019-02-16T00:28:08.078Z,101242.84
2019-02-16T00:30:34.996Z,101239.21
2019-02-16T00:33:02.255Z,101245.59
2019-02-16T00:35:29.250Z,101247.48
2019-02-16T00:37:56.555Z,101244.28
2019-02-16T00:40:23.802Z,101237.12
2019-02-16T00:42:50.714Z,101236.22
2019-02-16T00:45:17.658Z,101232.63
2019-02-16T00:47:44.624Z,101227.11
2019-02-16T00:50:11.598Z,101226.73
2019-02-16T00:52:38.573Z,101230.23
2019-02-16T00:55:05.611Z,101220.89
2019-02-16T00:57:32.941Z,101222.44
2019-02-16T00:59:59.824Z,101214.39
2019-02-16T01:02:26.776Z,101216.48
2019-02-16T01:04:54.990Z,101207.33
2019-02-16T01:07:21.877Z,101213.78
2019-02-16T01:09:49.106Z,101214.93
2019-02-16T01:12:16.407Z,101204.84
2019-02-16T01:14:43.333Z,101202.86
2019-02-16T01:17:10.665Z,101201.94
2019-02-16T01:19:37.614Z,101198.73
2019-02-16T01:22:04.846Z,101197.97
2019-02-16T01:24:31.752Z,101191.83
2019-02-16T01:26:58.703Z,101187.02
2019-02-16T01:29:25.620Z,101180.04
2019-02-16T01:31:52.950Z,101178.16
2019-02-16T01:34:19.918Z,101174.03
2019-02-16T01:36:47.134Z,101167.94
2019-02-16T01:39:14.706Z,101166.89
2019-02-16T01:41:41.668Z,101165.52
2019-02-16T01:44:08.627Z,101164.66
2019-02-16T01:46:35.558Z,101156.76
2019-02-16T01:49:02.445Z,101159.97
2019-02-16T01:51:31.826Z,101164.30
2019-02-16T01:53:57.932Z,101158.08
2019-02-16T01:56:25.168Z,101162.83
2019-02-16T01:58:52.060Z,101165.10
2019-02-16T02:01:19.376Z,101151.26
2019-02-16T02:03:47.253Z,101150.39
2019-02-16T02:06:14.132Z,101146.88
2019-02-16T02:08:41.343Z,101140.59
2019-02-16T02:11:08.313Z,101140.53
2019-02-16T02:13:35.273Z,101135.17
2019-02-16T02:16:02.498Z,101130.48
2019-02-16T02:18:29.404Z,101137.05
2019-02-16T02:20:56.269Z,101129.06
2019-02-16T02:23:23.160Z,101133.44
2019-02-16T02:25:50.117Z,101132.89
2019-02-16T02:28:17.026Z,101129.40
2019-02-16T02:30:44.368Z,101129.49
2019-02-16T02:33:11.303Z,101123.95
2019-02-16T02:35:38.544Z,101118.47
2019-02-16T02:38:05.705Z,101120.22
2019-02-16T02:40:32.589Z,101124.38
2019-02-16T02:42:59.534Z,101124.87
2019-02-16T02:45:26.504Z,101124.32
2019-02-16T02:47:53.371Z,101123.48
2019-02-16T02:50:20.321Z,101125.52
2019-02-16T02:52:47.198Z,101121.36
2019-02-16T02:55:14.172Z,101120.06
2019-02-16T02:57:41.116Z,101121.37
2019-02-16T03:00:08.061Z,101118.22
2019-02-16T03:02:35.029Z,101113.84
2019-02-16T03:05:01.994Z,101114.22
2019-02-16T03:07:29.066Z,101113.03
2019-02-16T03:09:56.400Z,101111.99
2019-02-16T03:12:23.265Z,101114.39
2019-02-16T03:14:50.149Z,101110.31
2019-02-16T03:17:17.108Z,101101.72
2019-02-16T03:19:44.288Z,101108.34
2019-02-16T03:22:11.440Z,101105.69
2019-02-16T03:24:38.386Z,101109.09
2019-02-16T03:27:05.245Z,101110.38
2019-02-16T03:29:32.170Z,101114.15
2019-02-16T03:31:59.122Z,101110.88
2019-02-16T03:34:26.470Z,101110.29
2019-02-16T03:36:53.415Z,101101.71
2019-02-16T03:39:20.562Z,101100.11
2019-02-16T03:41:48.059Z,101103.61
2019-02-16T03:44:15.085Z,101109.24
2019-02-16T03:46:42.349Z,101101.36
2019-02-16T03:49:09.288Z,101092.06
2019-02-16T03:51:36.274Z,101094.63
2019-02-16T03:54:03.194Z,101091.64
2019-02-16T03:56:30.417Z,101094.84
2019-02-16T03:58:57.301Z,101091.00
2019-02-16T04:01:24.238Z,101090.05
2019-02-16T04:03:51.178Z,101088.68
2019-02-16T04:06:18.394Z,101081.79
2019-02-16T04:08:45.555Z,101074.83
2019-02-16T04:11:12.459Z,101082.36
2019-02-16T04:13:39.408Z,101072.55
2019-02-16T04:16:06.289Z,101078.22
2019-02-16T04:18:34.562Z,101076.47
2019-02-16T04:21:01.481Z,101078.89
2019-02-16T04:23:28.444Z,101073.77
2019-02-16T04:25:55.829Z,101079.73
2019-02-16T04:28:22.780Z,101076.20
2019-02-16T04:30:49.722Z,101079.09
2019-02-16T04:33:16.613Z,101073.24
2019-02-16T04:35:43.559Z,101075.77
2019-02-16T04:38:10.521Z,101068.41
2019-02-16T04:40:37.790Z,101075.56
2019-02-16T04:43:04.674Z,101073.14
2019-02-16T04:45:31.546Z,101077.76
2019-02-16T04:47:58.722Z,101072.05
2019-02-16T04:50:25.620Z,101067.44
2019-02-16T04:52:52.576Z,101064.06
2019-02-16T04:55:22.444Z,101064.66
2019-02-16T04:57:49.398Z,101064.30
2019-02-16T05:00:16.320Z,101067.16
2019-02-16T05:02:43.297Z,101056.55
2019-02-16T05:05:10.262Z,101055.65
2019-02-16T05:07:37.217Z,101052.88
2019-02-16T05:10:04.084Z,101048.48
2019-02-16T05:12:30.966Z,101050.50
2019-02-16T05:14:57.828Z,101042.04
2019-02-16T05:17:24.732Z,101046.13
2019-02-16T05:19:52.013Z,101044.00
2019-02-16T05:22:19.241Z,101045.30
2019-02-16T05:24:46.401Z,101043.11
2019-02-16T05:27:13.659Z,101044.84
2019-02-16T05:29:40.549Z,101041.45
2019-02-16T05:32:07.521Z,101039.95
2019-02-16T05:34:34.467Z,101044.88
2019-02-16T05:37:01.337Z,101047.52
2019-02-16T05:39:28.224Z,101042.42
2019-02-16T05:41:55.184Z,101048.39
2019-02-16T05:44:22.240Z,101040.73
2019-02-16T05:46:49.428Z,101039.05
2019-02-16T05:49:16.314Z,101031.98
2019-02-16T05:51:43.189Z,101038.80
2019-02-16T05:54:10.084Z,101044.95
2019-02-16T05:56:37.119Z,101033.86
2019-02-16T05:59:04.353Z,101037.67
2019-02-16T06:01:31.573Z,101040.54
2019-02-16T06:03:58.599Z,101045.25
2019-02-16T06:06:25.471Z,101047.24
2019-02-16T06:08:52.372Z,101049.31
2019-02-16T06:11:19.304Z,101050.27
2019-02-16T06:13:46.221Z,101048.16
2019-02-16T06:16:13.078Z,101045.38
2019-02-16T06:18:40.347Z,101037.81
2019-02-16T06:21:07.318Z,101042.02
2019-02-16T06:23:34.290Z,101043.51
2019-02-16T06:26:01.277Z,101035.64
2019-02-16T06:28:28.230Z,101044.96
2019-02-16T06:30:55.195Z,101042.55
2019-02-16T06:33:22.156Z,101049.73
2019-02-16T06:35:49.129Z,101039.94
2019-02-16T06:38:16.507Z,101040.59
2019-02-16T06:40:43.444Z,101039.19
2019-02-16T06:43:10.425Z,101038.86
2019-02-16T06:45:37.370Z,101035.59
2019-02-16T06:48:04.355Z,101041.12
2019-02-16T06:50:36.902Z,101038.94
2019-02-16T06:53:00.250Z,101040.44
2019-02-16T06:55:27.197Z,101044.20
2019-02-16T06:57:54.096Z,101041.13
2019-02-16T07:00:21.380Z,101042.77
2019-02-16T07:02:48.362Z,101041.77
2019-02-16T07:05:15.713Z,101044.12
2019-02-16T07:07:42.922Z,101050.72
2019-02-16T07:10:09.818Z,101045.86
2019-02-16T07:12:37.133Z,101045.98
2019-02-16T07:15:04.409Z,101043.94
2019-02-16T07:17:31.350Z,101053.00
2019-02-16T07:19:58.575Z,101049.91
2019-02-16T07:22:25.555Z,101047.84
2019-02-16T07:24:52.433Z,101049.02
2019-02-16T07:27:19.377Z,101049.16
2019-02-16T07:29:46.709Z,101048.14
2019-02-16T07:32:13.975Z,101050.94
2019-02-16T07:34:41.077Z,101043.59
2019-02-16T07:37:08.292Z,101043.79
2019-02-16T07:39:35.492Z,101038.34
2019-02-16T07:42:02.380Z,101037.67
2019-02-16T07:44:29.317Z,101038.89
2019-02-16T07:46:56.199Z,101046.02
2019-02-16T07:49:23.472Z,101040.27
2019-02-16T07:51:50.734Z,101039.84
2019-02-16T07:54:17.966Z,101041.50
2019-02-16T07:56:45.235Z,101044.42
2019-02-16T07:59:12.602Z,101042.98
2019-02-16T08:01:39.580Z,101039.33
2019-02-16T08:04:06.905Z,101038.86
2019-02-16T08:06:33.874Z,101038.85
2019-02-16T08:09:01.083Z,101046.47
2019-02-16T08:11:29.978Z,101053.79
2019-02-16T08:13:58.164Z,101046.14
2019-02-16T08:16:25.510Z,101041.88
2019-02-16T08:18:52.454Z,101041.96
2019-02-16T08:21:19.806Z,101038.28
2019-02-16T08:23:46.725Z,101038.09
2019-02-16T08:26:14.005Z,101039.83
2019-02-16T08:28:41.477Z,101041.59
2019-02-16T08:31:08.701Z,101032.73
2019-02-16T08:33:35.837Z,101042.09
2019-02-16T08:36:03.009Z,101042.64
2019-02-16T08:38:30.268Z,101035.56
2019-02-16T08:40:57.536Z,101042.61
2019-02-16T08:43:24.805Z,101032.66
2019-02-16T08:45:52.024Z,101037.42
2019-02-16T08:48:20.105Z,101027.75
2019-02-16T08:50:47.047Z,101033.10
2019-02-16T08:53:14.315Z,101028.96
2019-02-16T08:55:42.146Z,101036.52
2019-02-16T08:58:09.095Z,101035.14
2019-02-16T09:00:36.246Z,101029.23
2019-02-16T09:03:03.410Z,101029.08
2019-02-16T09:05:40.321Z,101020.25
2019-02-16T09:08:07.278Z,101020.02
2019-02-16T09:10:34.161Z,101017.96
2019-02-16T09:13:03.118Z,101015.14
2019-02-16T09:15:30.064Z,101013.68
2019-02-16T09:17:57.015Z,101016.89
2019-02-16T09:20:24.000Z,101010.77
2019-02-16T09:22:51.264Z,101008.09
2019-02-16T09:25:18.146Z,101009.38
2019-02-16T09:27:45.360Z,101012.50
2019-02-16T09:30:12.273Z,101012.59
2019-02-16T09:32:39.226Z,101008.73
2019-02-16T09:35:06.195Z,101006.14
2019-02-16T09:37:33.349Z,101007.80
2019-02-16T09:40:00.611Z,101002.96
2019-02-16T09:42:27.627Z,101007.36
2019-02-16T09:44:55.277Z,101006.99
2019-02-16T09:47:22.765Z,101007.91
2019-02-16T09:49:50.019Z,101000.60
2019-02-16T09:52:16.977Z,101002.81
2019-02-16T09:54:43.869Z,101006.82
2019-02-16T09:57:10.831Z,101007.15
2019-02-16T09:59:37.786Z,101010.77
2019-02-16T10:02:04.677Z,101009.84
2019-02-16T10:04:31.643Z,101009.75
2019-02-16T10:06:58.497Z,100999.28
2019-02-16T10:09:25.399Z,100995.53
2019-02-16T10:11:52.735Z,100992.92
2019-02-16T10:14:19.631Z,100997.27
2019-02-16T10:16:46.557Z,101000.56
2019-02-16T10:19:13.766Z,100995.78
2019-02-16T10:21:41.023Z,100997.83
2019-02-16T10:24:07.918Z,100995.52
2019-02-16T10:26:35.230Z,100990.91
2019-02-16T10:29:02.597Z,100981.45
2019-02-16T10:31:29.830Z,100983.66
2019-02-16T10:33:56.716Z,100983.00
2019-02-16T10:36:23.932Z,100984.84
2019-02-16T10:38:50.893Z,100982.13
2019-02-16T10:41:18.258Z,100989.91
2019-02-16T10:43:45.180Z,100986.31
2019-02-16T10:46:12.397Z,100982.60
2019-02-16T10:48:39.348Z,100979.82
2019-02-16T10:51:06.744Z,100967.14
2019-02-16T10:53:33.618Z,100968.80
2019-02-16T10:56:00.821Z,100961.47
2019-02-16T10:58:28.089Z,100959.20
2019-02-16T11:00:55.334Z,100960.52
2019-02-16T11:03:22.597Z,100959.15
2019-02-16T11:05:49.863Z,100952.88
2019-02-16T11:08:16.823Z,100956.24
2019-02-16T11:10:44.150Z,100955.17
2019-02-16T11:13:11.155Z,100957.88
2019-02-16T11:15:38.173Z,100954.29
2019-02-16T11:18:05.205Z,100955.17
2019-02-16T11:20:32.325Z,100955.23
2019-02-16T11:22:59.281Z,100954.14
2019-02-16T11:25:26.285Z,100952.74
2019-02-16T11:27:53.698Z,100954.98
2019-02-16T11:30:21.082Z,100950.53
2019-02-16T11:32:48.092Z,100949.52
2019-02-16T11:35:16.174Z,100952.37
2019-02-16T11:37:43.137Z,100948.45
2019-02-16T11:40:11.479Z,100946.34
2019-02-16T11:42:38.740Z,100948.29
2019-02-16T11:45:06.784Z,100940.55
2019-02-16T11:47:34.065Z,100940.63
2019-02-16T11:50:01.305Z,100932.55
2019-02-16T11:52:28.289Z,100929.50
2019-02-16T11:54:55.211Z,100932.03
2019-02-16T11:57:22.387Z,100924.17
2019-02-16T11:59:49.770Z,100924.86
2019-02-16T12:02:17.063Z,100916.56
2019-02-16T12:04:43.966Z,100914.87
2019-02-16T12:07:10.860Z,100913.99
2019-02-16T12:09:37.911Z,100905.11
2019-02-16T12:12:05.028Z,100904.88
2019-02-16T12:14:32.322Z,100903.34
2019-02-16T12:16:59.569Z,100903.27
2019-02-16T12:19:26.459Z,100897.89
2019-02-16T12:21:53.687Z,100892.19
2019-02-16T12:24:20.732Z,100897.30
2019-02-16T12:26:48.029Z,100885.63
2019-02-16T12:29:15.425Z,100887.48
2019-02-16T12:31:42.589Z,100879.17
2019-02-16T12:34:09.550Z,100878.48
2019-02-16T12:36:36.886Z,100878.39
2019-02-16T12:39:05.029Z,100869.50
2019-02-16T12:41:33.699Z,100864.58
2019-02-16T12:44:00.589Z,100864.98
2019-02-16T12:46:27.532Z,100858.02
2019-02-16T12:48:54.403Z,100855.62
2019-02-16T12:51:21.658Z,100855.68
2019-02-16T12:53:48.606Z,100851.57
2019-02-16T12:56:15.600Z,100851.30
2019-02-16T12:58:42.570Z,100852.41
2019-02-16T13:01:09.803Z,100848.17
2019-02-16T13:03:36.967Z,100839.99
2019-02-16T13:06:04.059Z,100842.75
2019-02-16T13:08:31.219Z,100836.45
2019-02-16T13:10:58.189Z,100834.59
2019-02-16T13:13:25.567Z,100832.28
2019-02-16T13:15:52.926Z,100833.46
2019-02-16T13:18:19.805Z,100827.27
2019-02-16T13:20:47.071Z,100826.00
2019-02-16T13:23:14.002Z,100826.20
2019-02-16T13:25:41.930Z,100832.51
2019-02-16T13:28:09.361Z,100832.17
2019-02-16T13:30:36.537Z,100827.92
2019-02-16T13:33:08.562Z,100829.55
2019-02-16T13:35:32.505Z,100828.33
2019-02-16T13:37:59.472Z,100824.52
2019-02-16T13:40:26.699Z,100823.25
2019-02-16T13:42:54.029Z,100821.55
2019-02-16T13:45:21.401Z,100815.61
2019-02-16T13:54:26.254Z,100811.59
2019-02-16T13:56:53.524Z,100810.19
2019-02-16T13:59:20.498Z,100803.16
2019-02-16T14:01:47.956Z,100801.50
2019-02-16T14:04:17.200Z,100795.10
2019-02-16T14:06:44.184Z,100796.59
2019-02-16T14:09:11.157Z,100795.11
2019-02-16T14:11:38.098Z,100792.77
2019-02-16T14:14:05.433Z,100793.69
2019-02-16T14:16:32.392Z,100792.47
2019-02-16T14:19:01.365Z,100789.52
2019-02-16T14:21:28.593Z,100794.61
2019-02-16T14:23:55.574Z,100786.03
2019-02-16T14:26:24.622Z,100782.58
2019-02-16T14:28:51.952Z,100783.10
2019-02-16T14:31:28.049Z,100783.59
2019-02-16T14:33:48.074Z,100780.20
2019-02-16T14:36:15.050Z,100778.59
2019-02-16T14:38:41.968Z,100773.83
2019-02-16T14:41:09.043Z,100775.94
2019-02-16T14:43:36.361Z,100774.98
2019-02-16T14:46:03.344Z,100778.38
2019-02-16T14:48:30.270Z,100777.58
2019-02-16T14:50:57.337Z,100776.75
2019-02-16T14:53:24.529Z,100702.70
2019-02-16T14:55:54.231Z,100772.42
2019-02-16T14:58:20.275Z,100769.06
2019-02-16T15:00:47.260Z,100759.70
2019-02-16T15:03:15.582Z,100769.95
2019-02-16T15:05:42.825Z,100772.12
2019-02-16T15:08:10.322Z,100775.47
2019-02-16T15:10:39.936Z,100772.84
2019-02-16T15:13:07.018Z,100775.34
2019-02-16T15:15:34.307Z,100776.11
2019-02-16T15:18:01.310Z,100781.03
2019-02-16T15:21:18.627Z,100785.15
2019-02-16T15:23:46.996Z,100785.76
2019-02-16T15:26:14.329Z,100785.70
2019-02-16T15:28:41.847Z,100788.09
2019-02-16T15:31:08.909Z,100784.38
2019-02-16T15:33:36.388Z,100782.41
2019-02-16T15:36:03.338Z,100780.83
2019-02-16T15:38:30.228Z,100786.84
2019-02-16T15:40:57.548Z,100786.05
2019-02-16T15:43:24.512Z,100787.83
2019-02-16T15:45:51.392Z,100787.41
2019-02-16T15:48:18.620Z,100789.56
2019-02-16T15:50:45.935Z,100789.13
2019-02-16T15:53:12.918Z,100790.02
2019-02-16T15:55:40.436Z,100791.36
2019-02-16T15:58:07.414Z,100786.72
2019-02-16T16:00:34.387Z,100788.92
2019-02-16T16:03:01.416Z,100787.70
2019-02-16T16:05:28.754Z,100790.30
2019-02-16T16:07:55.995Z,100792.48
2019-02-16T16:10:23.013Z,100792.09
2019-02-16T16:12:50.549Z,100798.97
2019-02-16T16:15:18.506Z,100796.90
2019-02-16T16:17:45.821Z,100795.75
2019-02-16T16:20:12.739Z,100789.41
2019-02-16T16:22:40.122Z,100788.27
2019-02-16T16:25:07.070Z,100784.46
2019-02-16T16:27:33.946Z,100786.19
2019-02-16T16:30:01.164Z,100797.31
2019-02-16T16:32:28.505Z,100791.36
2019-02-16T16:34:55.504Z,100784.13
2019-02-16T16:37:22.547Z,100791.84
2019-02-16T16:39:49.430Z,100791.05
2019-02-16T16:42:16.372Z,100795.39
2019-02-16T16:44:43.345Z,100795.03
2019-02-16T16:47:10.326Z,100797.23
2019-02-16T16:49:37.926Z,100796.91
2019-02-16T16:52:05.367Z,100800.77
2019-02-16T16:54:34.653Z,100793.20
2019-02-16T16:57:01.471Z,100791.94
2019-02-16T16:59:28.422Z,100791.57
2019-02-16T17:01:55.969Z,100796.31
2019-02-16T17:04:23.320Z,100796.39
2019-02-16T17:06:50.493Z,100802.41
2019-02-16T17:09:17.704Z,100807.92
2019-02-16T17:11:44.981Z,100805.00
2019-02-16T17:14:11.946Z,100806.73
2019-02-16T17:16:38.988Z,100805.98
2019-02-16T17:19:06.242Z,100801.75
2019-02-16T17:21:33.280Z,100801.75
2019-02-16T17:24:00.951Z,100803.42
2019-02-16T17:26:28.039Z,100794.95
2019-02-16T17:28:55.420Z,100795.86
2019-02-16T17:31:22.575Z,100795.06
2019-02-16T17:33:49.840Z,100796.77
2019-02-16T17:36:17.097Z,100792.58
2019-02-16T17:38:45.021Z,100796.01
2019-02-16T17:41:13.292Z,100791.36
2019-02-16T17:43:40.236Z,100792.21
2019-02-16T17:46:07.420Z,100785.84
2019-02-16T17:48:34.302Z,100788.45
2019-02-16T17:51:01.346Z,100782.52
2019-02-16T17:53:28.413Z,100786.80
2019-02-16T17:55:55.646Z,100785.56
2019-02-16T17:58:22.616Z,100791.56
2019-02-16T18:00:49.820Z,100787.73
2019-02-16T18:03:17.182Z,100789.00
2019-02-16T18:05:44.155Z,100786.01
2019-02-16T18:08:11.391Z,100788.59
2019-02-16T18:10:38.618Z,100788.59
2019-02-16T18:13:05.516Z,100789.48
2019-02-16T18:15:32.784Z,100794.59
2019-02-16T18:17:59.879Z,100798.05
2019-02-16T18:20:26.821Z,100796.80
2019-02-16T18:22:56.224Z,100793.01
2019-02-16T18:25:23.184Z,100793.44
2019-02-16T18:27:50.414Z,100791.75
2019-02-16T18:30:17.680Z,100794.74
2019-02-16T18:32:44.688Z,100788.81
2019-02-16T18:35:11.670Z,100789.25
2019-02-16T18:37:38.764Z,100788.81
2019-02-16T18:40:05.860Z,100792.64
2019-02-16T18:42:33.552Z,100789.24
2019-02-16T18:45:00.557Z,100795.64
2019-02-16T18:47:27.582Z,100800.33
2019-02-16T18:49:55.167Z,100805.04
2019-02-16T18:52:22.422Z,100800.34
2019-02-16T18:54:49.740Z,100794.81
2019-02-16T18:57:16.820Z,100799.09
2019-02-16T18:59:44.090Z,100798.66
2019-02-16T19:02:11.241Z,100799.53
2019-02-16T19:04:38.514Z,100798.23
2019-02-16T19:07:05.739Z,100798.23
2019-02-16T19:09:32.709Z,100791.05
2019-02-16T19:11:59.700Z,100798.23
2019-02-16T19:14:26.727Z,100798.23
2019-02-16T19:16:53.958Z,100795.69
2019-02-16T19:19:20.955Z,100794.42
2019-02-16T19:21:48.354Z,100796.11
2019-02-16T19:24:15.347Z,100793.16
2019-02-16T19:26:42.580Z,100788.08
2019-02-16T19:29:09.625Z,100788.49
2019-02-16T19:31:36.970Z,100785.09
2019-02-16T19:34:04.211Z,100784.68
2019-02-16T19:36:31.554Z,100780.01
2019-02-16T19:38:58.806Z,100778.73
2019-02-16T19:41:26.319Z,100775.34
2019-02-16T19:43:54.443Z,100772.37
2019-02-16T19:46:22.476Z,100774.51
2019-02-16T19:48:49.379Z,100780.84
2019-02-16T19:51:16.360Z,100775.34
2019-02-16T19:53:43.659Z,100780.84
2019-02-16T19:56:10.950Z,100774.89
2019-02-16T19:58:41.316Z,100776.16
2019-02-16T20:01:08.366Z,100782.06
2019-02-16T20:03:35.428Z,100784.98
2019-02-16T20:06:02.412Z,100790.50
2019-02-16T20:08:29.338Z,100788.78
2019-02-16T20:10:56.736Z,100784.56
2019-02-16T20:13:23.666Z,100784.16
2019-02-16T20:15:50.883Z,100788.78
2019-02-16T20:18:18.129Z,100782.02
2019-02-16T20:20:45.395Z,100782.87
2019-02-16T20:23:12.845Z,100780.74
2019-02-16T20:25:40.199Z,100781.55
2019-02-16T20:28:07.136Z,100777.33
2019-02-16T20:30:34.121Z,100777.73
2019-02-16T20:33:01.053Z,100779.40
2019-02-16T20:35:28.054Z,100783.65
2019-02-16T20:37:55.063Z,100785.31
2019-02-16T20:40:22.009Z,100784.44
2019-02-16T20:42:49.033Z,100783.98
2019-02-16T20:45:16.262Z,100783.98
2019-02-16T20:47:43.584Z,100783.56
2019-02-16T20:50:10.805Z,100789.06
2019-02-16T20:52:39.258Z,100782.28
2019-02-16T20:55:06.531Z,100777.19
2019-02-16T20:57:33.496Z,100782.65
2019-02-16T21:00:00.603Z,100783.86
2019-02-16T21:02:27.873Z,100784.28
2019-02-16T21:04:54.875Z,100784.23
2019-02-16T21:07:21.849Z,100784.64
2019-02-16T21:09:49.005Z,100791.81
2019-02-16T21:12:16.409Z,100788.40
2019-02-16T21:14:43.577Z,100784.13
2019-02-16T21:17:10.565Z,100788.27
2019-02-16T21:19:37.823Z,100788.23
2019-02-16T21:22:05.166Z,100783.09
2019-02-16T21:24:32.530Z,100781.78
2019-02-16T21:26:59.895Z,100780.09
2019-02-16T21:29:27.250Z,100783.84
2019-02-16T21:31:54.223Z,100779.95
2019-02-16T21:34:21.191Z,100782.91
2019-02-16T21:36:48.489Z,100781.19
2019-02-16T21:39:15.847Z,100785.82
2019-02-16T21:41:43.106Z,100783.66
2019-02-16T21:44:10.463Z,100786.17
2019-02-16T21:46:37.699Z,100789.05
2019-02-16T21:49:04.679Z,100784.39
2019-02-16T21:51:31.663Z,100782.64
2019-02-16T21:53:59.099Z,100786.78
2019-02-16T21:56:26.194Z,100782.88
2019-02-16T21:58:55.628Z,100779.02
2019-02-16T22:01:22.725Z,100784.91
2019-02-16T22:03:49.678Z,100788.57
2019-02-16T22:06:16.597Z,100787.18
2019-02-16T22:08:44.005Z,100785.51
2019-02-16T22:11:11.345Z,100788.48
2019-02-16T22:13:38.702Z,100793.92
2019-02-16T22:16:05.597Z,100786.22
2019-02-16T22:18:32.528Z,100789.55
2019-02-16T22:20:59.533Z,100796.34
2019-02-16T22:23:26.802Z,100794.64
2019-02-16T22:25:54.084Z,100793.03
2019-02-16T22:28:30.527Z,100794.70
2019-02-16T22:30:51.195Z,100802.34
2019-02-16T22:33:18.103Z,100806.01
2019-02-16T22:35:45.285Z,100804.20
2019-02-16T22:38:12.584Z,100808.68
2019-02-16T22:40:39.614Z,100815.85
2019-02-16T22:43:06.486Z,100820.91
2019-02-16T22:45:33.743Z,100824.20
2019-02-16T22:48:00.721Z,100820.69
2019-02-16T22:50:28.161Z,100826.13
2019-02-16T22:52:55.201Z,100822.77
2019-02-16T22:55:22.530Z,100822.38
2019-02-16T22:57:49.783Z,100824.02
2019-02-16T23:00:16.796Z,100819.75
2019-02-16T23:02:45.362Z,100817.58
2019-02-16T23:05:12.729Z,100813.78
2019-02-16T23:07:40.025Z,100812.12
2019-02-16T23:10:07.285Z,100816.84
2019-02-16T23:12:36.045Z,100819.42
2019-02-16T23:15:03.078Z,100816.81
2019-02-16T23:17:31.586Z,100811.33
2019-02-16T23:19:58.838Z,100818.94
2019-02-16T23:22:25.986Z,100819.34
2019-02-16T23:24:53.453Z,100819.36
2019-02-16T23:27:20.725Z,100823.59
2019-02-16T23:29:47.858Z,100823.98
2019-02-16T23:32:14.737Z,100824.86
2019-02-16T23:34:42.046Z,100822.72
2019-02-16T23:37:09.012Z,100819.30
2019-02-16T23:39:36.253Z,100814.22
2019-02-16T23:42:03.497Z,100821.38
2019-02-16T23:44:30.375Z,100819.30
2019-02-16T23:46:57.691Z,100813.02
2019-02-16T23:49:24.879Z,100812.21
2019-02-16T23:51:51.854Z,100814.28
2019-02-16T23:54:19.150Z,100819.80
2019-02-16T23:56:46.077Z,100811.73
2019-02-16T23:59:13.342Z,100811.25
